Dades meteomassalio
Diari Summary for Febrer 16, 2018 Units:  Both    English   Metric
« Previous Day
Next Day »
Diari Semanal Mensual Anual Personalitzat
  Maxima: Minima: Mijana:
Temperatura: TemperatureC °F /  -17.8 °C 5.6 °F /  -14.7 °C 10.4 °F /  -12 °C
Rosada: DewpointC °F /  -17.8 °C 3.9 °F /  -15.6 °C 7.6 °F /  -13.6 °C
Humitat: Humidity % 64 % 83 %
Velocitat del vent: WindSpeedKMH mph /  0 km/h - 0.5 mph /  0.8 km/h
Racha vent: WindSpeedGustKMH mph /  0 km/h - -
Vent:- - East
Pressio: PressurehPa in /  0 hPa 1023.6 in /  34659.1 hPa -
Pluja: 0.0 in /  0 mm    
Historical Graphs
 
 
Tabular Data for Febrer 16, 2018
Time Temperature Dew Point Pressure Wind Wind Speed Wind Gust Humidity Rainfall Rate (Hourly) solar Conditions
TemperatureC °F /  -17.8 °C DewpointC °F /  -17.8 °C PressurehPa in /  0 hPa Calm     Humidity % HourlyPrecipMM in /  0 mm SolarRadiationWatts/m^2 W/m2 Conditions
00:04 6.7 °F /  -14.1 °C 5.0 °F /  -15 °C 1027.3 in /  34784.4 hPa Calm     89 % 0.0 in /  0 mm 0.0 W/m2 CLR
00:09 6.1 °F /  -14.4 °C 4.4 °F /  -15.3 °C 1027.3 in /  34784.4 hPa Calm     89 % 0.0 in /  0 mm 0.0 W/m2 CLR
00:14 6.1 °F /  -14.4 °C 4.4 °F /  -15.3 °C 1027.3 in /  34784.4 hPa Calm     89 % 0.0 in /  0 mm 0.0 W/m2 CLR
00:19 6.1 °F /  -14.4 °C 4.4 °F /  -15.3 °C 1027.3 in /  34784.4 hPa Calm     89 % 0.0 in /  0 mm 0.0 W/m2 CLR
00:24 6.1 °F /  -14.4 °C 4.4 °F /  -15.3 °C 1027.3 in /  34784.4 hPa Calm     89 % 0.0 in /  0 mm 0.0 W/m2 CLR
00:29 6.1 °F /  -14.4 °C 4.4 °F /  -15.3 °C 1027.3 in /  34784.4 hPa Calm     89 % 0.0 in /  0 mm 0.0 W/m2 CLR
00:34 6.1 °F /  -14.4 °C 4.4 °F /  -15.3 °C 1027.3 in /  34784.4 hPa Calm     89 % 0.0 in /  0 mm 0.0 W/m2 CLR
00:39 6.1 °F /  -14.4 °C 4.4 °F /  -15.3 °C 1027.3 in /  34784.4 hPa Calm     89 % 0.0 in /  0 mm 0.0 W/m2 CLR
00:44 6.1 °F /  -14.4 °C 4.4 °F /  -15.3 °C 1027.3 in /  34784.4 hPa Calm     89 % 0.0 in /  0 mm 0.0 W/m2 CLR
00:49 5.6 °F /  -14.7 °C 3.9 °F /  -15.6 °C 1027.3 in /  34784.4 hPa Calm     89 % 0.0 in /  0 mm 0.0 W/m2 CLR
00:54 5.6 °F /  -14.7 °C 3.9 °F /  -15.6 °C 1027.3 in /  34784.4 hPa Calm     89 % 0.0 in /  0 mm 0.0 W/m2 CLR
00:59 5.6 °F /  -14.7 °C 3.9 °F /  -15.6 °C 1027.3 in /  34784.4 hPa Calm     89 % 0.0 in /  0 mm 0.0 W/m2 CLR
01:04 5.6 °F /  -14.7 °C 3.9 °F /  -15.6 °C 1027.0 in /  34774.2 hPa Calm     89 % 0.0 in /  0 mm 0.0 W/m2 CLR
01:09 6.1 °F /  -14.4 °C 4.6 °F /  -15.2 °C 1027.0 in /  34774.2 hPa Calm     90 % 0.0 in /  0 mm 0.0 W/m2 CLR
01:14 6.1 °F /  -14.4 °C 4.6 °F /  -15.2 °C 1027.0 in /  34774.2 hPa Calm     90 % 0.0 in /  0 mm 0.0 W/m2 CLR
01:19 6.1 °F /  -14.4 °C 4.6 °F /  -15.2 °C 1027.0 in /  34774.2 hPa Calm     90 % 0.0 in /  0 mm 0.0 W/m2 CLR
01:24 6.1 °F /  -14.4 °C 4.6 °F /  -15.2 °C 1027.0 in /  34774.2 hPa Calm     90 % 0.0 in /  0 mm 0.0 W/m2 CLR
01:29 6.7 °F /  -14.1 °C 5.2 °F /  -14.9 °C 1027.0 in /  34774.2 hPa Calm     90 % 0.0 in /  0 mm 0.0 W/m2 CLR
01:34 6.7 °F /  -14.1 °C 5.2 °F /  -14.9 °C 1027.0 in /  34774.2 hPa Calm     90 % 0.0 in /  0 mm 0.0 W/m2 CLR
01:39 6.7 °F /  -14.1 °C 5.2 °F /  -14.9 °C 1027.0 in /  34774.2 hPa Calm     90 % 0.0 in /  0 mm 0.0 W/m2 CLR
01:44 6.1 °F /  -14.4 °C 4.6 °F /  -15.2 °C 1027.0 in /  34774.2 hPa Calm     90 % 0.0 in /  0 mm 0.0 W/m2 CLR
01:49 6.7 °F /  -14.1 °C 5.2 °F /  -14.9 °C 1027.0 in /  34774.2 hPa Calm     90 % 0.0 in /  0 mm 0.0 W/m2 CLR
01:54 6.7 °F /  -14.1 °C 5.3 °F /  -14.8 °C 1027.0 in /  34774.2 hPa Calm     91 % 0.0 in /  0 mm 0.0 W/m2 CLR
01:59 6.7 °F /  -14.1 °C 5.3 °F /  -14.8 °C 1027.0 in /  34774.2 hPa Calm     91 % 0.0 in /  0 mm 0.0 W/m2 CLR
02:04 6.7 °F /  -14.1 °C 5.3 °F /  -14.8 °C 1027.0 in /  34774.2 hPa Calm     91 % 0.0 in /  0 mm 0.0 W/m2 CLR
02:09 6.7 °F /  -14.1 °C 5.3 °F /  -14.8 °C 1027.0 in /  34774.2 hPa Calm     91 % 0.0 in /  0 mm 0.0 W/m2 CLR
02:14 6.1 °F /  -14.4 °C 4.8 °F /  -15.1 °C 1027.0 in /  34774.2 hPa Calm     91 % 0.0 in /  0 mm 0.0 W/m2 CLR
02:19 6.7 °F /  -14.1 °C 5.3 °F /  -14.8 °C 1027.0 in /  34774.2 hPa Calm     91 % 0.0 in /  0 mm 0.0 W/m2 CLR
02:24 6.7 °F /  -14.1 °C 5.3 °F /  -14.8 °C 1027.0 in /  34774.2 hPa Calm     91 % 0.0 in /  0 mm 0.0 W/m2 CLR
02:29 6.7 °F /  -14.1 °C 5.3 °F /  -14.8 °C 1027.0 in /  34774.2 hPa Calm     91 % 0.0 in /  0 mm 0.0 W/m2 CLR
02:34 6.1 °F /  -14.4 °C 4.8 °F /  -15.1 °C 1027.0 in /  34774.2 hPa Calm     91 % 0.0 in /  0 mm 0.0 W/m2 CLR
02:39 6.7 °F /  -14.1 °C 5.3 °F /  -14.8 °C 1027.0 in /  34774.2 hPa Calm     91 % 0.0 in /  0 mm 0.0 W/m2 CLR
02:44 6.1 °F /  -14.4 °C 4.8 °F /  -15.1 °C 1027.0 in /  34774.2 hPa Calm     91 % 0.0 in /  0 mm 0.0 W/m2 CLR
02:49 6.1 °F /  -14.4 °C 4.8 °F /  -15.1 °C 1027.0 in /  34774.2 hPa Calm     91 % 0.0 in /  0 mm 0.0 W/m2 CLR
02:54 6.1 °F /  -14.4 °C 4.8 °F /  -15.1 °C 1027.0 in /  34774.2 hPa Calm     91 % 0.0 in /  0 mm 0.0 W/m2 CLR
02:59 6.1 °F /  -14.4 °C 4.9 °F /  -15.1 °C 1027.0 in /  34774.2 hPa Calm     92 % 0.0 in /  0 mm 0.0 W/m2 CLR
03:04 6.1 °F /  -14.4 °C 4.8 °F /  -15.1 °C 1027.0 in /  34774.2 hPa Calm     91 % 0.0 in /  0 mm 0.0 W/m2 CLR
03:09 6.1 °F /  -14.4 °C 4.8 °F /  -15.1 °C 1027.0 in /  34774.2 hPa Calm     91 % 0.0 in /  0 mm 0.0 W/m2 CLR
03:14 6.1 °F /  -14.4 °C 4.8 °F /  -15.1 °C 1027.0 in /  34774.2 hPa Calm     91 % 0.0 in /  0 mm 0.0 W/m2 CLR
03:19 6.1 °F /  -14.4 °C 4.8 °F /  -15.1 °C 1026.6 in /  34760.7 hPa Calm     91 % 0.0 in /  0 mm 0.0 W/m2 CLR
03:24 6.1 °F /  -14.4 °C 4.8 °F /  -15.1 °C 1026.6 in /  34760.7 hPa Calm     91 % 0.0 in /  0 mm 0.0 W/m2 CLR
03:29 6.1 °F /  -14.4 °C 4.8 °F /  -15.1 °C 1027.0 in /  34774.2 hPa Calm     91 % 0.0 in /  0 mm 0.0 W/m2 CLR
03:34 6.1 °F /  -14.4 °C 4.9 °F /  -15.1 °C 1026.6 in /  34760.7 hPa Calm     92 % 0.0 in /  0 mm 0.0 W/m2 CLR
03:40 6.1 °F /  -14.4 °C 4.8 °F /  -15.1 °C 1026.6 in /  34760.7 hPa Calm     91 % 0.0 in /  0 mm 0.0 W/m2 CLR
03:45 5.6 °F /  -14.7 °C 4.3 °F /  -15.4 °C 1026.6 in /  34760.7 hPa Calm     92 % 0.0 in /  0 mm 0.0 W/m2 CLR
03:50 5.6 °F /  -14.7 °C 4.2 °F /  -15.4 °C 1026.6 in /  34760.7 hPa Calm     91 % 0.0 in /  0 mm 0.0 W/m2 CLR
03:55 5.6 °F /  -14.7 °C 4.3 °F /  -15.4 °C 1026.6 in /  34760.7 hPa Calm     92 % 0.0 in /  0 mm 0.0 W/m2 CLR
04:00 5.6 °F /  -14.7 °C 4.3 °F /  -15.4 °C 1026.6 in /  34760.7 hPa Calm     92 % 0.0 in /  0 mm 0.0 W/m2 CLR
04:05 6.1 °F /  -14.4 °C 4.8 °F /  -15.1 °C 1026.3 in /  34750.5 hPa Calm     91 % 0.0 in /  0 mm 0.0 W/m2 CLR
04:10 6.1 °F /  -14.4 °C 4.9 °F /  -15.1 °C 1026.3 in /  34750.5 hPa Calm     92 % 0.0 in /  0 mm 0.0 W/m2 CLR
04:15 6.1 °F /  -14.4 °C 4.9 °F /  -15.1 °C 1026.6 in /  34760.7 hPa Calm     92 % 0.0 in /  0 mm 0.0 W/m2 CLR
04:20 6.1 °F /  -14.4 °C 4.9 °F /  -15.1 °C 1026.3 in /  34750.5 hPa Calm     92 % 0.0 in /  0 mm 0.0 W/m2 CLR
04:25 6.1 °F /  -14.4 °C 4.9 °F /  -15.1 °C 1026.3 in /  34750.5 hPa Calm     92 % 0.0 in /  0 mm 0.0 W/m2 CLR
04:30 6.1 °F /  -14.4 °C 4.9 °F /  -15.1 °C 1026.6 in /  34760.7 hPa Calm     92 % 0.0 in /  0 mm 0.0 W/m2 CLR
04:35 6.1 °F /  -14.4 °C 4.9 °F /  -15.1 °C 1026.3 in /  34750.5 hPa Calm     92 % 0.0 in /  0 mm 0.0 W/m2 CLR
04:40 6.1 °F /  -14.4 °C 4.9 °F /  -15.1 °C 1026.3 in /  34750.5 hPa Calm     92 % 0.0 in /  0 mm 0.0 W/m2 CLR
04:45 6.1 °F /  -14.4 °C 4.9 °F /  -15.1 °C 1026.3 in /  34750.5 hPa Calm     92 % 0.0 in /  0 mm 0.0 W/m2 CLR
04:50 6.1 °F /  -14.4 °C 4.9 °F /  -15.1 °C 1026.3 in /  34750.5 hPa Calm     92 % 0.0 in /  0 mm 0.0 W/m2 CLR
04:55 6.1 °F /  -14.4 °C 4.9 °F /  -15.1 °C 1026.3 in /  34750.5 hPa Calm     92 % 0.0 in /  0 mm 0.0 W/m2 CLR
05:00 5.6 °F /  -14.7 °C 4.3 °F /  -15.4 °C 1026.3 in /  34750.5 hPa Calm     92 % 0.0 in /  0 mm 0.0 W/m2 CLR
05:05 6.1 °F /  -14.4 °C 4.9 °F /  -15.1 °C 1026.3 in /  34750.5 hPa Calm     92 % 0.0 in /  0 mm 0.0 W/m2 CLR
05:10 6.1 °F /  -14.4 °C 4.9 °F /  -15.1 °C 1026.3 in /  34750.5 hPa Calm     92 % 0.0 in /  0 mm 0.0 W/m2 CLR
05:15 6.1 °F /  -14.4 °C 4.9 °F /  -15.1 °C 1026.3 in /  34750.5 hPa Calm     92 % 0.0 in /  0 mm 0.0 W/m2 CLR
05:20 6.1 °F /  -14.4 °C 4.9 °F /  -15.1 °C 1026.3 in /  34750.5 hPa Calm     92 % 0.0 in /  0 mm 0.0 W/m2 CLR
05:25 6.1 °F /  -14.4 °C 4.9 °F /  -15.1 °C 1026.3 in /  34750.5 hPa Calm     92 % 0.0 in /  0 mm 0.0 W/m2 CLR
05:30 6.1 °F /  -14.4 °C 4.9 °F /  -15.1 °C 1026.3 in /  34750.5 hPa Calm     92 % 0.0 in /  0 mm 0.0 W/m2 CLR
05:35 6.1 °F /  -14.4 °C 4.9 °F /  -15.1 °C 1026.3 in /  34750.5 hPa Calm     92 % 0.0 in /  0 mm 0.0 W/m2 CLR
05:40 6.1 °F /  -14.4 °C 4.9 °F /  -15.1 °C 1026.3 in /  34750.5 hPa Calm     92 % 0.0 in /  0 mm 0.0 W/m2 CLR
05:45 6.1 °F /  -14.4 °C 4.9 °F /  -15.1 °C 1026.3 in /  34750.5 hPa Calm     92 % 0.0 in /  0 mm 0.0 W/m2 CLR
05:50 6.1 °F /  -14.4 °C 4.9 °F /  -15.1 °C 1026.3 in /  34750.5 hPa Calm     92 % 0.0 in /  0 mm 0.0 W/m2 CLR
05:55 6.1 °F /  -14.4 °C 4.9 °F /  -15.1 °C 1026.3 in /  34750.5 hPa Calm     92 % 0.0 in /  0 mm 0.0 W/m2 CLR
06:00 6.1 °F /  -14.4 °C 4.9 °F /  -15.1 °C 1026.3 in /  34750.5 hPa Calm     92 % 0.0 in /  0 mm 0.0 W/m2 CLR
06:05 6.1 °F /  -14.4 °C 4.9 °F /  -15.1 °C 1026.6 in /  34760.7 hPa Calm     92 % 0.0 in /  0 mm 0.0 W/m2 CLR
06:10 6.1 °F /  -14.4 °C 4.9 °F /  -15.1 °C 1026.6 in /  34760.7 hPa Calm     92 % 0.0 in /  0 mm 0.0 W/m2 CLR
06:15 6.1 °F /  -14.4 °C 4.9 °F /  -15.1 °C 1026.3 in /  34750.5 hPa Calm     92 % 0.0 in /  0 mm 0.0 W/m2 CLR
06:20 6.1 °F /  -14.4 °C 4.9 °F /  -15.1 °C 1026.6 in /  34760.7 hPa Calm     92 % 0.0 in /  0 mm 0.0 W/m2 CLR
06:25 6.1 °F /  -14.4 °C 4.9 °F /  -15.1 °C 1026.6 in /  34760.7 hPa Calm     92 % 0.0 in /  0 mm 0.0 W/m2 CLR
06:30 6.1 °F /  -14.4 °C 4.9 °F /  -15.1 °C 1026.6 in /  34760.7 hPa Calm     92 % 0.0 in /  0 mm 0.0 W/m2 CLR
06:35 6.1 °F /  -14.4 °C 4.9 °F /  -15.1 °C 1026.6 in /  34760.7 hPa Calm     92 % 0.0 in /  0 mm 0.0 W/m2 CLR
06:40 5.6 °F /  -14.7 °C 4.3 °F /  -15.4 °C 1026.3 in /  34750.5 hPa Calm     92 % 0.0 in /  0 mm 0.0 W/m2 CLR
06:45 6.1 °F /  -14.4 °C 4.9 °F /  -15.1 °C 1026.3 in /  34750.5 hPa Calm     92 % 0.0 in /  0 mm 0.0 W/m2 CLR
06:50 6.1 °F /  -14.4 °C 4.9 °F /  -15.1 °C 1026.3 in /  34750.5 hPa Calm     92 % 0.0 in /  0 mm 0.0 W/m2 CLR
06:55 6.1 °F /  -14.4 °C 4.9 °F /  -15.1 °C 1026.3 in /  34750.5 hPa Calm     92 % 0.0 in /  0 mm 0.0 W/m2 CLR
07:00 6.1 °F /  -14.4 °C 4.9 °F /  -15.1 °C 1026.3 in /  34750.5 hPa Calm     92 % 0.0 in /  0 mm 0.0 W/m2 CLR
07:05 6.1 °F /  -14.4 °C 4.9 °F /  -15.1 °C 1026.3 in /  34750.5 hPa Calm     92 % 0.0 in /  0 mm 0.0 W/m2 CLR
07:10 6.1 °F /  -14.4 °C 4.9 °F /  -15.1 °C 1026.3 in /  34750.5 hPa Calm     92 % 0.0 in /  0 mm 0.0 W/m2 CLR
07:15 6.1 °F /  -14.4 °C 4.9 °F /  -15.1 °C 1026.3 in /  34750.5 hPa Calm     92 % 0.0 in /  0 mm 0.0 W/m2 CLR
07:20 6.1 °F /  -14.4 °C 4.9 °F /  -15.1 °C 1026.3 in /  34750.5 hPa Calm     92 % 0.0 in /  0 mm 0.0 W/m2 CLR
07:25 6.1 °F /  -14.4 °C 4.9 °F /  -15.1 °C 1026.3 in /  34750.5 hPa Calm     92 % 0.0 in /  0 mm 0.0 W/m2 CLR
07:30 6.1 °F /  -14.4 °C 4.9 °F /  -15.1 °C 1026.6 in /  34760.7 hPa Calm     92 % 0.0 in /  0 mm 0.0 W/m2 CLR
07:35 6.1 °F /  -14.4 °C 4.9 °F /  -15.1 °C 1026.6 in /  34760.7 hPa Calm     92 % 0.0 in /  0 mm 0.0 W/m2 CLR
07:40 6.1 °F /  -14.4 °C 4.9 °F /  -15.1 °C 1026.6 in /  34760.7 hPa Calm     92 % 0.0 in /  0 mm 0.0 W/m2 CLR
07:45 6.1 °F /  -14.4 °C 4.9 °F /  -15.1 °C 1026.6 in /  34760.7 hPa Calm     92 % 0.0 in /  0 mm 0.0 W/m2 OVC
07:50 6.1 °F /  -14.4 °C 4.9 °F /  -15.1 °C 1026.6 in /  34760.7 hPa Calm     92 % 0.0 in /  0 mm 0.0 W/m2 OVC
07:55 6.1 °F /  -14.4 °C 4.9 °F /  -15.1 °C 1026.6 in /  34760.7 hPa Calm     92 % 0.0 in /  0 mm 0.0 W/m2 OVC
08:00 6.1 °F /  -14.4 °C 4.9 °F /  -15.1 °C 1026.6 in /  34760.7 hPa Calm     92 % 0.0 in /  0 mm 0.0 W/m2 OVC
08:05 6.7 °F /  -14.1 °C 5.4 °F /  -14.8 °C 1026.6 in /  34760.7 hPa Calm     92 % 0.0 in /  0 mm 5.0 W/m2 OVC
08:10 6.7 °F /  -14.1 °C 5.4 °F /  -14.8 °C 1026.3 in /  34750.5 hPa Calm     92 % 0.0 in /  0 mm 9.0 W/m2 BKN
08:15 6.7 °F /  -14.1 °C 5.4 °F /  -14.8 °C 1026.3 in /  34750.5 hPa Calm     92 % 0.0 in /  0 mm 12.0 W/m2 BKN
08:20 6.7 °F /  -14.1 °C 5.4 °F /  -14.8 °C 1026.6 in /  34760.7 hPa Calm     92 % 0.0 in /  0 mm 18.0 W/m2 BKN
08:25 6.7 °F /  -14.1 °C 5.4 °F /  -14.8 °C 1026.6 in /  34760.7 hPa Calm     92 % 0.0 in /  0 mm 21.0 W/m2 BKN
08:30 6.7 °F /  -14.1 °C 5.4 °F /  -14.8 °C 1026.6 in /  34760.7 hPa Calm     92 % 0.0 in /  0 mm 25.0 W/m2 BKN
08:35 6.7 °F /  -14.1 °C 5.4 °F /  -14.8 °C 1026.6 in /  34760.7 hPa Calm     92 % 0.0 in /  0 mm 32.0 W/m2 BKN
08:40 6.7 °F /  -14.1 °C 5.4 °F /  -14.8 °C 1026.6 in /  34760.7 hPa Calm     92 % 0.0 in /  0 mm 39.0 W/m2 BKN
08:45 6.7 °F /  -14.1 °C 5.4 °F /  -14.8 °C 1027.0 in /  34774.2 hPa Calm     92 % 0.0 in /  0 mm 44.0 W/m2 BKN
08:50 7.2 °F /  -13.8 °C 6.0 °F /  -14.4 °C 1027.0 in /  34774.2 hPa Calm     92 % 0.0 in /  0 mm 47.0 W/m2 SCT
08:55 7.2 °F /  -13.8 °C 6.0 °F /  -14.4 °C 1027.0 in /  34774.2 hPa Calm     92 % 0.0 in /  0 mm 51.0 W/m2 SCT
09:00 7.2 °F /  -13.8 °C 6.0 °F /  -14.4 °C 1027.0 in /  34774.2 hPa Calm     92 % 0.0 in /  0 mm 53.0 W/m2 SCT
09:05 7.2 °F /  -13.8 °C 6.0 °F /  -14.4 °C 1027.0 in /  34774.2 hPa Calm     92 % 0.0 in /  0 mm 54.0 W/m2 SCT
09:10 7.2 °F /  -13.8 °C 6.0 °F /  -14.4 °C 1027.0 in /  34774.2 hPa Calm     92 % 0.0 in /  0 mm 58.0 W/m2 SCT
09:15 7.8 °F /  -13.4 °C 6.6 °F /  -14.1 °C 1027.0 in /  34774.2 hPa Calm     92 % 0.0 in /  0 mm 65.0 W/m2 SCT
09:20 7.8 °F /  -13.4 °C 6.6 °F /  -14.1 °C 1027.0 in /  34774.2 hPa Calm     92 % 0.0 in /  0 mm 70.0 W/m2 SCT
09:25 7.8 °F /  -13.4 °C 6.6 °F /  -14.1 °C 1027.0 in /  34774.2 hPa Calm     92 % 0.0 in /  0 mm 72.0 W/m2 FEW
09:30 8.3 °F /  -13.2 °C 7.1 °F /  -13.8 °C 1027.0 in /  34774.2 hPa Calm     92 % 0.0 in /  0 mm 69.0 W/m2 FEW
09:36 8.3 °F /  -13.2 °C 7.1 °F /  -13.8 °C 1027.0 in /  34774.2 hPa Calm     92 % 0.0 in /  0 mm 67.0 W/m2 FEW
09:41 8.3 °F /  -13.2 °C 7.1 °F /  -13.8 °C 1027.0 in /  34774.2 hPa Calm     92 % 0.0 in /  0 mm 70.0 W/m2 FEW
09:46 8.3 °F /  -13.2 °C 7.3 °F /  -13.7 °C 1027.0 in /  34774.2 hPa Calm     93 % 0.0 in /  0 mm 77.0 W/m2 FEW
09:51 8.3 °F /  -13.2 °C 7.1 °F /  -13.8 °C 1027.0 in /  34774.2 hPa Calm     92 % 0.0 in /  0 mm 79.0 W/m2 FEW
09:56 8.9 °F /  -12.8 °C 7.7 °F /  -13.5 °C 1027.0 in /  34774.2 hPa Calm     92 % 0.0 in /  0 mm 70.0 W/m2 FEW
10:01 8.9 °F /  -12.8 °C 7.7 °F /  -13.5 °C 1027.0 in /  34774.2 hPa Calm     92 % 0.0 in /  0 mm 67.0 W/m2 FEW
10:06 8.9 °F /  -12.8 °C 7.7 °F /  -13.5 °C 1027.0 in /  34774.2 hPa Calm     92 % 0.0 in /  0 mm 77.0 W/m2 FEW
10:11 8.9 °F /  -12.8 °C 7.7 °F /  -13.5 °C 1027.0 in /  34774.2 hPa Calm     92 % 0.0 in /  0 mm 100.0 W/m2 FEW
10:16 9.4 °F /  -12.6 °C 8.1 °F /  -13.3 °C 1027.0 in /  34774.2 hPa Calm     91 % 0.0 in /  0 mm 132.0 W/m2 CLR
10:21 9.4 °F /  -12.6 °C 8.2 °F /  -13.2 °C 1027.0 in /  34774.2 hPa Calm     92 % 0.0 in /  0 mm 162.0 W/m2 CLR
10:26 9.4 °F /  -12.6 °C 8.2 °F /  -13.2 °C 1027.0 in /  34774.2 hPa Calm     92 % 0.0 in /  0 mm 176.0 W/m2 CLR
10:31 10.0 °F /  -12.2 °C 8.6 °F /  -13 °C 1027.0 in /  34774.2 hPa Calm     91 % 0.0 in /  0 mm 188.0 W/m2 CLR
10:36 10.6 °F /  -11.9 °C 9.2 °F /  -12.7 °C 1027.0 in /  34774.2 hPa Calm     91 % 0.0 in /  0 mm 216.0 W/m2 CLR
10:41 10.6 °F /  -11.9 °C 9.2 °F /  -12.7 °C 1027.0 in /  34774.2 hPa Calm     91 % 0.0 in /  0 mm 250.0 W/m2 CLR
10:46 10.6 °F /  -11.9 °C 9.2 °F /  -12.7 °C 1027.0 in /  34774.2 hPa Calm     91 % 0.0 in /  0 mm 278.0 W/m2 CLR
10:51 11.1 °F /  -11.6 °C 9.6 °F /  -12.4 °C 1027.0 in /  34774.2 hPa Calm     90 % 0.0 in /  0 mm 251.0 W/m2 CLR
10:56 11.1 °F /  -11.6 °C 9.6 °F /  -12.4 °C 1027.0 in /  34774.2 hPa Calm     90 % 0.0 in /  0 mm 265.0 W/m2 CLR
11:01 11.7 °F /  -11.3 °C 9.9 °F /  -12.3 °C 1027.0 in /  34774.2 hPa Calm     89 % 0.0 in /  0 mm 279.0 W/m2 CLR
11:06 11.7 °F /  -11.3 °C 9.7 °F /  -12.4 °C 1027.0 in /  34774.2 hPa Calm     88 % 0.0 in /  0 mm 250.0 W/m2 CLR
11:11 12.2 °F /  -11 °C 10.1 °F /  -12.2 °C 1027.0 in /  34774.2 hPa Calm     87 % 0.0 in /  0 mm 255.0 W/m2 CLR
11:16 12.2 °F /  -11 °C 9.9 °F /  -12.3 °C 1027.0 in /  34774.2 hPa Calm     86 % 0.0 in /  0 mm 274.0 W/m2 CLR
11:21 12.8 °F /  -10.7 °C 10.3 °F /  -12.1 °C 1027.3 in /  34784.4 hPa Calm     85 % 0.0 in /  0 mm 288.0 W/m2 CLR
11:26 12.8 °F /  -10.7 °C 9.9 °F /  -12.3 °C 1027.3 in /  34784.4 hPa Calm     83 % 0.0 in /  0 mm 262.0 W/m2 CLR
11:31 13.3 °F /  -10.4 °C 10.3 °F /  -12.1 °C 1027.3 in /  34784.4 hPa Calm     82 % 0.0 in /  0 mm 244.0 W/m2 CLR
11:36 13.3 °F /  -10.4 °C 10.2 °F /  -12.1 °C 1027.3 in /  34784.4 hPa Calm     81 % 0.0 in /  0 mm 230.0 W/m2 CLR
11:41 13.3 °F /  -10.4 °C 9.8 °F /  -12.3 °C 1027.3 in /  34784.4 hPa Calm     79 % 0.0 in /  0 mm 234.0 W/m2 CLR
11:46 13.9 °F /  -10.1 °C 10.1 °F /  -12.2 °C 1027.0 in /  34774.2 hPa Calm     78 % 0.0 in /  0 mm 301.0 W/m2 CLR
11:51 13.9 °F /  -10.1 °C 10.1 °F /  -12.2 °C 1027.0 in /  34774.2 hPa Calm     78 % 0.0 in /  0 mm 309.0 W/m2 CLR
11:56 13.9 °F /  -10.1 °C 10.3 °F /  -12.1 °C 1027.0 in /  34774.2 hPa Calm     79 % 0.0 in /  0 mm 230.0 W/m2 CLR
12:01 13.9 °F /  -10.1 °C 9.9 °F /  -12.3 °C 1027.0 in /  34774.2 hPa Calm     77 % 0.0 in /  0 mm 193.0 W/m2 CLR
12:06 13.9 °F /  -10.1 °C 9.9 °F /  -12.3 °C 1027.0 in /  34774.2 hPa Calm     77 % 0.0 in /  0 mm 190.0 W/m2 CLR
12:11 14.4 °F /  -9.8 °C 10.4 °F /  -12 °C 1027.0 in /  34774.2 hPa Calm     77 % 0.0 in /  0 mm 216.0 W/m2 CLR
12:16 14.4 °F /  -9.8 °C 10.4 °F /  -12 °C 1027.0 in /  34774.2 hPa Calm     77 % 0.0 in /  0 mm 223.0 W/m2 CLR
12:21 14.4 °F /  -9.8 °C 10.3 °F /  -12.1 °C 1027.0 in /  34774.2 hPa Calm     76 % 0.0 in /  0 mm 213.0 W/m2 CLR
12:24 13.9 °F /  -10.1 °C 9.9 °F /  -12.3 °C 1026.6 in /  34760.7 hPa Calm     77 % 0.0 in /  0 mm 209.0 W/m2 CLR
12:29 13.9 °F /  -10.1 °C 9.7 °F /  -12.4 °C 1026.6 in /  34760.7 hPa Calm     76 % 0.0 in /  0 mm 193.0 W/m2 CLR
12:34 13.9 °F /  -10.1 °C 9.7 °F /  -12.4 °C 1026.6 in /  34760.7 hPa Calm     76 % 0.0 in /  0 mm 186.0 W/m2 CLR
12:39 14.4 °F /  -9.8 °C 10.4 °F /  -12 °C 1027.0 in /  34774.2 hPa Calm     77 % 0.0 in /  0 mm 193.0 W/m2 CLR
12:44 14.4 °F /  -9.8 °C 10.7 °F /  -11.8 °C 1027.0 in /  34774.2 hPa Calm     78 % 0.0 in /  0 mm 218.0 W/m2 CLR
12:49 14.4 °F /  -9.8 °C 10.7 °F /  -11.8 °C 1026.6 in /  34760.7 hPa Calm     78 % 0.0 in /  0 mm 218.0 W/m2 CLR
12:54 14.4 °F /  -9.8 °C 10.7 °F /  -11.8 °C 1026.6 in /  34760.7 hPa Calm     78 % 0.0 in /  0 mm 199.0 W/m2 CLR
12:59 14.4 °F /  -9.8 °C 10.7 °F /  -11.8 °C 1026.6 in /  34760.7 hPa Calm     78 % 0.0 in /  0 mm 188.0 W/m2 CLR
13:04 14.4 °F /  -9.8 °C 10.8 °F /  -11.8 °C 1026.6 in /  34760.7 hPa Calm     79 % 0.0 in /  0 mm 197.0 W/m2 CLR
13:09 14.4 °F /  -9.8 °C 10.7 °F /  -11.8 °C 1026.3 in /  34750.5 hPa Calm     78 % 0.0 in /  0 mm 243.0 W/m2 CLR
13:14 15.0 °F /  -9.4 °C 11.0 °F /  -11.7 °C 1026.3 in /  34750.5 hPa Calm     77 % 0.0 in /  0 mm 448.0 W/m2 CLR
13:19 15.0 °F /  -9.4 °C 10.8 °F /  -11.8 °C 1026.3 in /  34750.5 hPa Calm     76 % 0.0 in /  0 mm 374.0 W/m2 CLR
13:24 15.0 °F /  -9.4 °C 10.6 °F /  -11.9 °C 1026.0 in /  34740.4 hPa Calm     75 % 0.0 in /  0 mm 290.0 W/m2 CLR
13:29 15.0 °F /  -9.4 °C 10.4 °F /  -12 °C 1026.0 in /  34740.4 hPa Calm     74 % 0.0 in /  0 mm 283.0 W/m2 CLR
13:34 15.0 °F /  -9.4 °C 10.2 °F /  -12.1 °C 1026.0 in /  34740.4 hPa Calm     73 % 0.0 in /  0 mm 381.0 W/m2 CLR
13:39 15.0 °F /  -9.4 °C 10.4 °F /  -12 °C 1025.6 in /  34726.8 hPa Calm     74 % 0.0 in /  0 mm 626.0 W/m2 CLR
13:44 16.1 °F /  -8.8 °C 11.1 °F /  -11.6 °C 1025.6 in /  34726.8 hPa Calm     72 % 0.0 in /  0 mm 533.0 W/m2 CLR
13:49 16.1 °F /  -8.8 °C 10.8 °F /  -11.8 °C 1025.6 in /  34726.8 hPa Calm     71 % 0.0 in /  0 mm 496.0 W/m2 CLR
13:54 16.1 °F /  -8.8 °C 10.8 °F /  -11.8 °C 1025.3 in /  34716.7 hPa East 3.7 mph /  6 km/h 3.7 mph /  6 km/h 71 % 0.0 in /  0 mm 441.0 W/m2 CLR
13:59 16.1 °F /  -8.8 °C 11.1 °F /  -11.6 °C 1025.3 in /  34716.7 hPa East 3.7 mph /  6 km/h   72 % 0.0 in /  0 mm 517.0 W/m2 CLR
14:04 16.1 °F /  -8.8 °C 10.8 °F /  -11.8 °C 1025.3 in /  34716.7 hPa Calm     71 % 0.0 in /  0 mm 357.0 W/m2 CLR
14:09 16.1 °F /  -8.8 °C 10.6 °F /  -11.9 °C 1025.3 in /  34716.7 hPa Calm     70 % 0.0 in /  0 mm 403.0 W/m2 CLR
14:14 16.7 °F /  -8.5 °C 11.4 °F /  -11.4 °C 1025.3 in /  34716.7 hPa Calm   1.3 mph /  2.1 km/h 71 % 0.0 in /  0 mm 418.0 W/m2 CLR
14:19 17.2 °F /  -8.2 °C 11.7 °F /  -11.3 °C 1025.3 in /  34716.7 hPa South 5.6 mph /  9 km/h 5.6 mph /  9 km/h 70 % 0.0 in /  0 mm 438.0 W/m2 CLR
14:24 17.2 °F /  -8.2 °C 11.7 °F /  -11.3 °C 1024.9 in /  34703.1 hPa East 3.7 mph /  6 km/h   70 % 0.0 in /  0 mm 357.0 W/m2 CLR
14:29 17.2 °F /  -8.2 °C 11.7 °F /  -11.3 °C 1024.9 in /  34703.1 hPa East 3.7 mph /  6 km/h 3.7 mph /  6 km/h 70 % 0.0 in /  0 mm 475.0 W/m2 CLR
14:34 16.7 °F /  -8.5 °C 10.9 °F /  -11.7 °C 1024.9 in /  34703.1 hPa Calm     69 % 0.0 in /  0 mm 397.0 W/m2 CLR
14:39 17.2 °F /  -8.2 °C 11.3 °F /  -11.5 °C 1024.6 in /  34693 hPa South 5.6 mph /  9 km/h 5.6 mph /  9 km/h 68 % 0.0 in /  0 mm 575.0 W/m2 CLR
14:44 17.8 °F /  -7.9 °C 11.8 °F /  -11.2 °C 1024.6 in /  34693 hPa Calm     68 % 0.0 in /  0 mm 552.0 W/m2 CLR
14:49 17.8 °F /  -7.9 °C 11.8 °F /  -11.2 °C 1024.3 in /  34682.8 hPa ENE 7.4 mph /  11.9 km/h 7.4 mph /  11.9 km/h 68 % 0.0 in /  0 mm 415.0 W/m2 CLR
14:54 17.8 °F /  -7.9 °C 11.6 °F /  -11.3 °C 1024.3 in /  34682.8 hPa East 5.6 mph /  9 km/h 5.6 mph /  9 km/h 67 % 0.0 in /  0 mm 461.0 W/m2 CLR
14:59 17.8 °F /  -7.9 °C 11.6 °F /  -11.3 °C 1024.3 in /  34682.8 hPa Calm     67 % 0.0 in /  0 mm 323.0 W/m2 CLR
15:04 17.8 °F /  -7.9 °C 11.3 °F /  -11.5 °C 1024.3 in /  34682.8 hPa Calm     66 % 0.0 in /  0 mm 441.0 W/m2 CLR
15:10 17.2 °F /  -8.2 °C 10.6 °F /  -11.9 °C 1024.3 in /  34682.8 hPa Calm     65 % 0.0 in /  0 mm 348.0 W/m2 CLR
15:15 17.2 °F /  -8.2 °C 10.6 °F /  -11.9 °C 1024.3 in /  34682.8 hPa NNE 3.7 mph /  6 km/h 3.7 mph /  6 km/h 65 % 0.0 in /  0 mm 429.0 W/m2 CLR
15:20 17.2 °F /  -8.2 °C 10.6 °F /  -11.9 °C 1024.3 in /  34682.8 hPa East 5.6 mph /  9 km/h 5.6 mph /  9 km/h 65 % 0.0 in /  0 mm 359.0 W/m2 CLR
15:25 17.8 °F /  -7.9 °C 11.1 °F /  -11.6 °C 1024.3 in /  34682.8 hPa Calm   0.8 mph /  1.3 km/h 65 % 0.0 in /  0 mm 338.0 W/m2 CLR
15:30 17.8 °F /  -7.9 °C 11.1 °F /  -11.6 °C 1024.3 in /  34682.8 hPa Calm     65 % 0.0 in /  0 mm 302.0 W/m2 CLR
15:35 17.2 °F /  -8.2 °C 10.6 °F /  -11.9 °C 1023.9 in /  34669.3 hPa ESE 4.8 mph /  7.7 km/h 4.8 mph /  7.7 km/h 65 % 0.0 in /  0 mm 285.0 W/m2 CLR
15:40 17.2 °F /  -8.2 °C 10.3 °F /  -12.1 °C 1023.9 in /  34669.3 hPa East 3.7 mph /  6 km/h   64 % 0.0 in /  0 mm 237.0 W/m2 CLR
15:45 17.2 °F /  -8.2 °C 10.6 °F /  -11.9 °C 1023.9 in /  34669.3 hPa NE 7.4 mph /  11.9 km/h 7.4 mph /  11.9 km/h 65 % 0.0 in /  0 mm 206.0 W/m2 CLR
15:50 16.7 °F /  -8.5 °C 10.3 °F /  -12.1 °C 1023.9 in /  34669.3 hPa ENE 7.4 mph /  11.9 km/h 7.4 mph /  11.9 km/h 66 % 0.0 in /  0 mm 183.0 W/m2 CLR
15:55 16.7 °F /  -8.5 °C 10.5 °F /  -11.9 °C 1023.9 in /  34669.3 hPa East 3.7 mph /  6 km/h   67 % 0.0 in /  0 mm 163.0 W/m2 CLR
16:00 16.7 °F /  -8.5 °C 10.5 °F /  -11.9 °C 1023.9 in /  34669.3 hPa Calm     67 % 0.0 in /  0 mm 163.0 W/m2 CLR
16:05 16.7 °F /  -8.5 °C 10.5 °F /  -11.9 °C 1023.9 in /  34669.3 hPa Calm     67 % 0.0 in /  0 mm 176.0 W/m2 CLR
16:10 16.7 °F /  -8.5 °C 10.5 °F /  -11.9 °C 1023.9 in /  34669.3 hPa ENE 5.6 mph /  9 km/h 5.6 mph /  9 km/h 67 % 0.0 in /  0 mm 186.0 W/m2 CLR
16:15 16.7 °F /  -8.5 °C 10.5 °F /  -11.9 °C 1023.9 in /  34669.3 hPa ENE 6.4 mph /  10.3 km/h 6.4 mph /  10.3 km/h 67 % 0.0 in /  0 mm 200.0 W/m2 CLR
16:20 16.7 °F /  -8.5 °C 10.5 °F /  -11.9 °C 1023.9 in /  34669.3 hPa ENE 1.9 mph /  3.1 km/h   67 % 0.0 in /  0 mm 211.0 W/m2 CLR
16:25 16.7 °F /  -8.5 °C 10.5 °F /  -11.9 °C 1023.9 in /  34669.3 hPa ENE 9.3 mph /  15 km/h 9.3 mph /  15 km/h 67 % 0.0 in /  0 mm 188.0 W/m2 CLR
16:30 16.7 °F /  -8.5 °C 10.5 °F /  -11.9 °C 1023.9 in /  34669.3 hPa East 9.3 mph /  15 km/h 9.3 mph /  15 km/h 67 % 0.0 in /  0 mm 181.0 W/m2 CLR
16:35 16.7 °F /  -8.5 °C 10.3 °F /  -12.1 °C 1023.9 in /  34669.3 hPa NE 5.6 mph /  9 km/h 5.6 mph /  9 km/h 66 % 0.0 in /  0 mm 176.0 W/m2 CLR
16:40 16.7 °F /  -8.5 °C 10.3 °F /  -12.1 °C 1023.9 in /  34669.3 hPa East 5.6 mph /  9 km/h 5.6 mph /  9 km/h 66 % 0.0 in /  0 mm 176.0 W/m2 CLR
16:45 16.7 °F /  -8.5 °C 10.3 °F /  -12.1 °C 1023.9 in /  34669.3 hPa Calm     66 % 0.0 in /  0 mm 185.0 W/m2 CLR
16:50 16.7 °F /  -8.5 °C 10.3 °F /  -12.1 °C 1023.6 in /  34659.1 hPa Calm     66 % 0.0 in /  0 mm 188.0 W/m2 CLR
16:55 16.7 °F /  -8.5 °C 10.1 °F /  -12.2 °C 1023.6 in /  34659.1 hPa ENE 3.7 mph /  6 km/h   65 % 0.0 in /  0 mm 163.0 W/m2 CLR
17:00 16.7 °F /  -8.5 °C 10.3 °F /  -12.1 °C 1023.6 in /  34659.1 hPa ENE 5.6 mph /  9 km/h 5.6 mph /  9 km/h 66 % 0.0 in /  0 mm 151.0 W/m2 CLR
17:05 16.7 °F /  -8.5 °C 10.3 °F /  -12.1 °C 1023.9 in /  34669.3 hPa Calm     66 % 0.0 in /  0 mm 132.0 W/m2 CLR
17:10 16.1 °F /  -8.8 °C 10.0 °F /  -12.2 °C 1023.6 in /  34659.1 hPa Calm   1.0 mph /  1.6 km/h 67 % 0.0 in /  0 mm 116.0 W/m2 CLR
17:15 16.1 °F /  -8.8 °C 10.0 °F /  -12.2 °C 1023.6 in /  34659.1 hPa ENE 6.4 mph /  10.3 km/h 6.4 mph /  10.3 km/h 67 % 0.0 in /  0 mm 123.0 W/m2 CLR
17:20 16.1 °F /  -8.8 °C 10.2 °F /  -12.1 °C 1023.6 in /  34659.1 hPa Calm     68 % 0.0 in /  0 mm 114.0 W/m2 CLR
17:25 16.1 °F /  -8.8 °C 10.2 °F /  -12.1 °C 1023.6 in /  34659.1 hPa Calm     68 % 0.0 in /  0 mm 134.0 W/m2 CLR
17:30 16.1 °F /  -8.8 °C 10.2 °F /  -12.1 °C 1023.6 in /  34659.1 hPa Calm     68 % 0.0 in /  0 mm 91.0 W/m2 CLR
17:35 16.1 °F /  -8.8 °C 10.2 °F /  -12.1 °C 1023.6 in /  34659.1 hPa Calm     68 % 0.0 in /  0 mm 86.0 W/m2 CLR
17:40 16.1 °F /  -8.8 °C 10.2 °F /  -12.1 °C 1023.6 in /  34659.1 hPa Calm     68 % 0.0 in /  0 mm 81.0 W/m2 FEW
17:45 16.1 °F /  -8.8 °C 10.4 °F /  -12 °C 1023.6 in /  34659.1 hPa Calm     69 % 0.0 in /  0 mm 76.0 W/m2 FEW
17:50 15.6 °F /  -9.1 °C 9.9 °F /  -12.3 °C 1023.6 in /  34659.1 hPa Calm     69 % 0.0 in /  0 mm 70.0 W/m2 FEW
17:55 15.6 °F /  -9.1 °C 9.9 °F /  -12.3 °C 1023.6 in /  34659.1 hPa Calm     69 % 0.0 in /  0 mm 62.0 W/m2 SCT
18:00 15.6 °F /  -9.1 °C 10.1 °F /  -12.2 °C 1023.6 in /  34659.1 hPa Calm     70 % 0.0 in /  0 mm 54.0 W/m2 SCT
18:05 15.6 °F /  -9.1 °C 10.1 °F /  -12.2 °C 1023.6 in /  34659.1 hPa Calm     70 % 0.0 in /  0 mm 47.0 W/m2 SCT
18:10 15.6 °F /  -9.1 °C 10.1 °F /  -12.2 °C 1023.6 in /  34659.1 hPa Calm     70 % 0.0 in /  0 mm 39.0 W/m2 BKN
18:15 15.0 °F /  -9.4 °C 9.6 °F /  -12.4 °C 1023.6 in /  34659.1 hPa Calm     70 % 0.0 in /  0 mm 26.0 W/m2 BKN
18:20 15.0 °F /  -9.4 °C 9.8 °F /  -12.3 °C 1023.6 in /  34659.1 hPa Calm     71 % 0.0 in /  0 mm 16.0 W/m2 BKN
18:25 15.0 °F /  -9.4 °C 10.0 °F /  -12.2 °C 1023.6 in /  34659.1 hPa Calm     72 % 0.0 in /  0 mm 9.0 W/m2 BKN
18:30 15.0 °F /  -9.4 °C 10.0 °F /  -12.2 °C 1023.6 in /  34659.1 hPa Calm     72 % 0.0 in /  0 mm 5.0 W/m2 OVC
18:35 14.4 °F /  -9.8 °C 9.4 °F /  -12.6 °C 1023.6 in /  34659.1 hPa Calm     72 % 0.0 in /  0 mm 0.0 W/m2 OVC
18:40 13.9 °F /  -10.1 °C 8.9 °F /  -12.8 °C 1023.6 in /  34659.1 hPa Calm     72 % 0.0 in /  0 mm 0.0 W/m2 OVC
18:45 13.9 °F /  -10.1 °C 9.1 °F /  -12.7 °C 1023.6 in /  34659.1 hPa Calm     73 % 0.0 in /  0 mm 0.0 W/m2 CLR
18:50 13.9 °F /  -10.1 °C 9.1 °F /  -12.7 °C 1023.6 in /  34659.1 hPa Calm     73 % 0.0 in /  0 mm 0.0 W/m2 CLR
18:55 13.3 °F /  -10.4 °C 8.8 °F /  -12.9 °C 1023.6 in /  34659.1 hPa Calm     74 % 0.0 in /  0 mm 0.0 W/m2 CLR
19:00 13.3 °F /  -10.4 °C 8.8 °F /  -12.9 °C 1023.6 in /  34659.1 hPa Calm     74 % 0.0 in /  0 mm 0.0 W/m2 CLR
19:05 12.8 °F /  -10.7 °C 8.4 °F /  -13.1 °C 1023.6 in /  34659.1 hPa Calm     75 % 0.0 in /  0 mm 0.0 W/m2 CLR
19:10 12.8 °F /  -10.7 °C 8.7 °F /  -12.9 °C 1023.6 in /  34659.1 hPa Calm     76 % 0.0 in /  0 mm 0.0 W/m2 CLR
19:15 12.8 °F /  -10.7 °C 8.7 °F /  -12.9 °C 1023.6 in /  34659.1 hPa Calm     76 % 0.0 in /  0 mm 0.0 W/m2 CLR
19:20 12.8 °F /  -10.7 °C 8.8 °F /  -12.9 °C 1023.9 in /  34669.3 hPa Calm     77 % 0.0 in /  0 mm 0.0 W/m2 CLR
19:25 12.8 °F /  -10.7 °C 8.8 °F /  -12.9 °C 1023.9 in /  34669.3 hPa Calm     77 % 0.0 in /  0 mm 0.0 W/m2 CLR
19:30 12.8 °F /  -10.7 °C 9.1 °F /  -12.7 °C 1023.9 in /  34669.3 hPa Calm     78 % 0.0 in /  0 mm 0.0 W/m2 CLR
19:35 12.8 °F /  -10.7 °C 9.1 °F /  -12.7 °C 1023.9 in /  34669.3 hPa Calm     78 % 0.0 in /  0 mm 0.0 W/m2 CLR
19:40 12.8 °F /  -10.7 °C 9.1 °F /  -12.7 °C 1023.9 in /  34669.3 hPa Calm     78 % 0.0 in /  0 mm 0.0 W/m2 CLR
19:45 12.2 °F /  -11 °C 8.7 °F /  -12.9 °C 1023.9 in /  34669.3 hPa Calm     79 % 0.0 in /  0 mm 0.0 W/m2 CLR
19:50 12.2 °F /  -11 °C 8.7 °F /  -12.9 °C 1023.9 in /  34669.3 hPa Calm     79 % 0.0 in /  0 mm 0.0 W/m2 CLR
19:55 12.2 °F /  -11 °C 8.9 °F /  -12.8 °C 1023.6 in /  34659.1 hPa Calm     80 % 0.0 in /  0 mm 0.0 W/m2 CLR
20:00 12.2 °F /  -11 °C 8.9 °F /  -12.8 °C 1023.6 in /  34659.1 hPa Calm     80 % 0.0 in /  0 mm 0.0 W/m2 CLR
20:05 12.2 °F /  -11 °C 9.1 °F /  -12.7 °C 1023.6 in /  34659.1 hPa Calm     81 % 0.0 in /  0 mm 0.0 W/m2 CLR
20:10 12.2 °F /  -11 °C 9.1 °F /  -12.7 °C 1023.6 in /  34659.1 hPa Calm     81 % 0.0 in /  0 mm 0.0 W/m2 CLR
20:15 12.2 °F /  -11 °C 9.2 °F /  -12.7 °C 1023.6 in /  34659.1 hPa Calm     82 % 0.0 in /  0 mm 0.0 W/m2 CLR
20:20 11.7 °F /  -11.3 °C 8.7 °F /  -12.9 °C 1023.6 in /  34659.1 hPa Calm     82 % 0.0 in /  0 mm 0.0 W/m2 CLR
20:25 11.7 °F /  -11.3 °C 8.7 °F /  -12.9 °C 1023.6 in /  34659.1 hPa Calm     82 % 0.0 in /  0 mm 0.0 W/m2 CLR
20:30 11.1 °F /  -11.6 °C 8.3 °F /  -13.2 °C 1023.6 in /  34659.1 hPa Calm     83 % 0.0 in /  0 mm 0.0 W/m2 CLR
20:35 11.1 °F /  -11.6 °C 8.3 °F /  -13.2 °C 1023.6 in /  34659.1 hPa Calm     83 % 0.0 in /  0 mm 0.0 W/m2 CLR
20:40 10.6 °F /  -11.9 °C 7.8 °F /  -13.4 °C 1023.6 in /  34659.1 hPa Calm     83 % 0.0 in /  0 mm 0.0 W/m2 CLR
20:45 10.6 °F /  -11.9 °C 7.9 °F /  -13.4 °C 1023.6 in /  34659.1 hPa Calm     84 % 0.0 in /  0 mm 0.0 W/m2 CLR
20:50 10.6 °F /  -11.9 °C 7.9 °F /  -13.4 °C 1023.6 in /  34659.1 hPa Calm     84 % 0.0 in /  0 mm 0.0 W/m2 CLR
20:55 10.0 °F /  -12.2 °C 7.4 °F /  -13.7 °C 1023.6 in /  34659.1 hPa Calm     84 % 0.0 in /  0 mm 0.0 W/m2 CLR
21:00 10.0 °F /  -12.2 °C 7.6 °F /  -13.6 °C 1023.6 in /  34659.1 hPa Calm     85 % 0.0 in /  0 mm 0.0 W/m2 CLR
21:05 10.6 °F /  -11.9 °C 8.1 °F /  -13.3 °C 1023.6 in /  34659.1 hPa Calm     85 % 0.0 in /  0 mm 0.0 W/m2 CLR
21:10 10.6 °F /  -11.9 °C 8.3 °F /  -13.2 °C 1023.6 in /  34659.1 hPa Calm     86 % 0.0 in /  0 mm 0.0 W/m2 CLR
21:15 10.6 °F /  -11.9 °C 8.3 °F /  -13.2 °C 1023.6 in /  34659.1 hPa Calm     86 % 0.0 in /  0 mm 0.0 W/m2 CLR
21:20 10.6 °F /  -11.9 °C 8.3 °F /  -13.2 °C 1023.9 in /  34669.3 hPa Calm     86 % 0.0 in /  0 mm 0.0 W/m2 CLR
21:25 10.0 °F /  -12.2 °C 7.8 °F /  -13.4 °C 1023.9 in /  34669.3 hPa Calm     86 % 0.0 in /  0 mm 0.0 W/m2 CLR
21:30 10.0 °F /  -12.2 °C 7.8 °F /  -13.4 °C 1023.6 in /  34659.1 hPa Calm     86 % 0.0 in /  0 mm 0.0 W/m2 CLR
21:35 10.0 °F /  -12.2 °C 7.8 °F /  -13.4 °C 1023.9 in /  34669.3 hPa Calm     86 % 0.0 in /  0 mm 0.0 W/m2 CLR
21:40 9.4 °F /  -12.6 °C 7.2 °F /  -13.8 °C 1023.6 in /  34659.1 hPa Calm     86 % 0.0 in /  0 mm 0.0 W/m2 CLR
21:45 9.4 °F /  -12.6 °C 7.4 °F /  -13.7 °C 1023.6 in /  34659.1 hPa Calm     87 % 0.0 in /  0 mm 0.0 W/m2 CLR
21:50 9.4 °F /  -12.6 °C 7.4 °F /  -13.7 °C 1023.6 in /  34659.1 hPa Calm     87 % 0.0 in /  0 mm 0.0 W/m2 CLR
21:55 9.4 °F /  -12.6 °C 7.4 °F /  -13.7 °C 1023.9 in /  34669.3 hPa Calm     87 % 0.0 in /  0 mm 0.0 W/m2 CLR
22:00 9.4 °F /  -12.6 °C 7.4 °F /  -13.7 °C 1023.6 in /  34659.1 hPa Calm     87 % 0.0 in /  0 mm 0.0 W/m2 CLR
22:05 9.4 °F /  -12.6 °C 7.4 °F /  -13.7 °C 1023.6 in /  34659.1 hPa Calm     87 % 0.0 in /  0 mm 0.0 W/m2 CLR
22:10 9.4 °F /  -12.6 °C 7.6 °F /  -13.6 °C 1023.9 in /  34669.3 hPa Calm     88 % 0.0 in /  0 mm 0.0 W/m2 CLR
22:15 9.4 °F /  -12.6 °C 7.6 °F /  -13.6 °C 1023.9 in /  34669.3 hPa Calm     88 % 0.0 in /  0 mm 0.0 W/m2 CLR
22:20 9.4 °F /  -12.6 °C 7.6 °F /  -13.6 °C 1023.9 in /  34669.3 hPa Calm     88 % 0.0 in /  0 mm 0.0 W/m2 CLR
22:25 9.4 °F /  -12.6 °C 7.6 °F /  -13.6 °C 1023.9 in /  34669.3 hPa Calm     88 % 0.0 in /  0 mm 0.0 W/m2 CLR
22:30 8.9 °F /  -12.8 °C 7.0 °F /  -13.9 °C 1023.9 in /  34669.3 hPa Calm     88 % 0.0 in /  0 mm 0.0 W/m2 CLR
22:35 8.9 °F /  -12.8 °C 7.0 °F /  -13.9 °C 1023.9 in /  34669.3 hPa Calm     88 % 0.0 in /  0 mm 0.0 W/m2 CLR
22:40 8.9 °F /  -12.8 °C 7.0 °F /  -13.9 °C 1023.9 in /  34669.3 hPa Calm     88 % 0.0 in /  0 mm 0.0 W/m2 CLR
22:46 8.9 °F /  -12.8 °C 7.0 °F /  -13.9 °C 1023.9 in /  34669.3 hPa Calm     88 % 0.0 in /  0 mm 0.0 W/m2 CLR
22:51 8.9 °F /  -12.8 °C 7.0 °F /  -13.9 °C 1023.9 in /  34669.3 hPa Calm     88 % 0.0 in /  0 mm 0.0 W/m2 CLR
22:56 8.9 °F /  -12.8 °C 7.0 °F /  -13.9 °C 1023.9 in /  34669.3 hPa Calm     88 % 0.0 in /  0 mm 0.0 W/m2 CLR
23:01 8.9 °F /  -12.8 °C 7.0 °F /  -13.9 °C 1023.9 in /  34669.3 hPa Calm     88 % 0.0 in /  0 mm 0.0 W/m2 CLR
23:06 8.9 °F /  -12.8 °C 7.0 °F /  -13.9 °C 1023.9 in /  34669.3 hPa Calm     88 % 0.0 in /  0 mm 0.0 W/m2 CLR
23:11 8.9 °F /  -12.8 °C 7.0 °F /  -13.9 °C 1023.9 in /  34669.3 hPa Calm     88 % 0.0 in /  0 mm 0.0 W/m2 CLR
23:16 8.9 °F /  -12.8 °C 7.0 °F /  -13.9 °C 1023.9 in /  34669.3 hPa Calm     88 % 0.0 in /  0 mm 0.0 W/m2 CLR
23:21 8.9 °F /  -12.8 °C 7.0 °F /  -13.9 °C 1023.9 in /  34669.3 hPa Calm     88 % 0.0 in /  0 mm 0.0 W/m2 CLR
23:26 8.9 °F /  -12.8 °C 7.2 °F /  -13.8 °C 1023.9 in /  34669.3 hPa Calm     89 % 0.0 in /  0 mm 0.0 W/m2 CLR
23:31 8.9 °F /  -12.8 °C 7.0 °F /  -13.9 °C 1023.9 in /  34669.3 hPa Calm     88 % 0.0 in /  0 mm 0.0 W/m2 CLR
23:36 8.9 °F /  -12.8 °C 7.2 °F /  -13.8 °C 1023.9 in /  34669.3 hPa Calm     89 % 0.0 in /  0 mm 0.0 W/m2 CLR
23:41 8.9 °F /  -12.8 °C 7.2 °F /  -13.8 °C 1023.9 in /  34669.3 hPa Calm     89 % 0.0 in /  0 mm 0.0 W/m2 CLR
23:46 8.9 °F /  -12.8 °C 7.2 °F /  -13.8 °C 1023.9 in /  34669.3 hPa Calm     89 % 0.0 in /  0 mm 0.0 W/m2 CLR
23:51 8.9 °F /  -12.8 °C 7.2 °F /  -13.8 °C 1023.9 in /  34669.3 hPa Calm     89 % 0.0 in /  0 mm 0.0 W/m2 CLR
23:56 8.9 °F /  -12.8 °C 7.2 °F /  -13.8 °C 1023.9 in /  34669.3 hPa Calm     89 % 0.0 in /  0 mm 0.0 W/m2 CLR
Lo Temps de Massalio
Compliments of Weather Underground - 1.25 mb